Time;durP1;ratioP1;P1;durP2;ratioP2;P2;SDS_P1;SDS_P2;PMS_P1;PMS_P2;Temp;Humidity;BMP_temperature;BMP_pressure;BME280_temperature;BME280_humidity;BME280_pressure;Samples;Min_cycle;Max_cycle;Signal;HPM_P1;HPM_P2
2021/01/18 00:10:55;;;;;;;;;;;;;;;;;;;;;
2021/01/18 00:13:47;;;;;;;;;;;;;;;;;;;;;
2021/01/18 00:16:09;;;;;;;21.67;8.80;;;4.70;99.90;;;;;;3947705;30;20270;-95
2021/01/18 00:22:27;;;;;;;36.17;9.63;;;4.70;99.90;;;;;;3923579;30;20233;-93
2021/01/18 00:24:55;;;;;;;30.60;9.00;;;4.70;99.90;;;;;;3946930;30;20247;-95
2021/01/18 00:31:16;;;;;;;;;;;;;;;;;;;;;
2021/01/18 00:34:32;;;;;;;31.23;9.37;;;4.60;99.90;;;;;;3963771;29;20212;-95
2021/01/18 00:37:15;;;;;;;23.23;8.27;;;4.50;99.90;;;;;;3924810;30;20195;-93
2021/01/18 00:39:50;;;;;;;32.07;9.40;;;4.50;99.90;;;;;;3944812;30;20599;-94
2021/01/18 00:42:17;;;;;;;;;;;;;;;;;;;;;
2021/01/18 00:45:18;;;;;;;25.43;7.80;;;4.60;99.90;;;;;;3947025;30;20214;-94
2021/01/18 00:48:23;;;;;;;23.57;9.30;;;4.60;99.90;;;;;;3944858;30;20194;-93
2021/01/18 00:50:36;;;;;;;27.00;8.97;;;4.60;99.90;;;;;;4025510;24;20245;-93
2021/01/18 00:53:55;;;;;;;33.27;9.07;;;4.50;99.90;;;;;;3935457;30;20670;-94
2021/01/18 00:56:34;;;;;;;26.73;8.60;;;4.60;99.90;;;;;;3918249;30;20187;-94
2021/01/18 00:59:11;;;;;;;;;;;;;;;;;;;;;
2021/01/18 01:02:32;;;;;;;29.50;8.27;;;4.50;99.90;;;;;;3933442;30;20670;-95
2021/01/18 01:06:31;;;;;;;29.13;8.40;;;4.60;99.90;;;;;;3902731;30;20666;-94
2021/01/18 01:09:32;;;;;;;;;;;;;;;;;;;;;
2021/01/18 01:12:33;;;;;;;25.33;8.90;;;4.70;99.90;;;;;;3917184;30;20201;-94
2021/01/18 01:15:11;;;;;;;26.77;8.50;;;4.70;99.90;;;;;;3931769;29;20240;-95
2021/01/18 01:17:28;;;;;;;;;;;;;;;;;;;;;
2021/01/18 01:30:54;;;;;;;26.70;8.73;;;5.10;99.90;;;;;;3917273;30;20615;-94
2021/01/18 01:44:00;;;;;;;27.37;8.73;;;5.20;99.90;;;;;;3948142;30;20228;-94
2021/01/18 01:46:37;;;;;;;26.13;8.47;;;5.30;99.90;;;;;;3920186;30;20246;-95
2021/01/18 01:48:57;;;;;;;;;;;;;;;;;;;;;
2021/01/18 01:51:38;;;;;;;30.97;8.50;;;5.20;99.90;;;;;;3949367;30;20186;-94
2021/01/18 01:54:36;;;;;;;25.10;7.70;;;5.30;99.90;;;;;;3891549;30;20303;-94
2021/01/18 02:00:53;;;;;;;23.77;8.30;;;5.20;99.90;;;;;;4179942;24;20921;-94
2021/01/18 02:03:11;;;;;;;28.07;8.20;;;5.20;99.90;;;;;;3920782;30;20584;-93
2021/01/18 02:06:10;;;;;;;23.93;8.23;;;5.10;99.90;;;;;;3915414;30;20270;-95
2021/01/18 02:09:19;;;;;;;;;;;;;;;;;;;;;
2021/01/18 02:13:02;;;;;;;;;;;;;;;;;;;;;
2021/01/18 02:15:18;;;;;;;29.67;8.57;;;5.10;99.90;;;;;;3934203;30;20221;-94
2021/01/18 02:18:05;;;;;;;;;;;;;;;;;;;;;
2021/01/18 02:21:30;;;;;;;30.20;9.20;;;4.90;99.90;;;;;;3933402;30;20182;-94
2021/01/18 02:24:18;;;;;;;23.53;8.60;;;4.80;99.90;;;;;;3920189;30;20219;-93
2021/01/18 02:27:12;;;;;;;;;;;;;;;;;;;;;
2021/01/18 02:30:09;;;;;;;22.70;8.03;;;4.80;99.90;;;;;;3935984;30;20174;-94
2021/01/18 02:36:26;;;;;;;22.77;8.33;;;4.80;99.90;;;;;;3935335;30;20187;-94
2021/01/18 02:39:35;;;;;;;;;;;;;;;;;;;;;
2021/01/18 02:42:30;;;;;;;25.87;8.47;;;4.60;99.90;;;;;;3935315;30;20218;-94
2021/01/18 02:44:59;;;;;;;27.30;8.20;;;4.60;99.90;;;;;;3916459;30;20223;-94
2021/01/18 02:47:55;;;;;;;22.73;8.63;;;4.50;99.90;;;;;;3916241;30;20230;-94
2021/01/18 02:51:19;;;;;;;21.60;7.00;;;4.60;99.90;;;;;;3934009;30;20240;-94
2021/01/18 02:54:33;;;;;;;;;;;;;;;;;;;;;
2021/01/18 02:57:32;;;;;;;23.43;8.00;;;4.40;99.90;;;;;;3919216;30;20220;-95
2021/01/18 03:00:12;;;;;;;29.43;8.47;;;4.30;99.90;;;;;;3904611;30;20235;-93
2021/01/18 03:03:19;;;;;;;;;;;;;;;;;;;;;
2021/01/18 03:06:33;;;;;;;;;;;;;;;;;;;;;
2021/01/18 03:12:04;;;;;;;28.80;7.57;;;4.20;99.90;;;;;;3905854;30;20303;-94
2021/01/18 03:15:15;;;;;;;;;;;;;;;;;;;;;
2021/01/18 03:18:26;;;;;;;;;;;;;;;;;;;;;
2021/01/18 03:21:19;;;;;;;23.53;7.97;;;4.10;99.90;;;;;;3917712;30;20197;-94
2021/01/18 03:27:41;;;;;;;31.70;9.07;;;4.30;99.90;;;;;;3903832;30;20195;-94
2021/01/18 03:32:51;;;;;;;;;;;;;;;;;;;;;
2021/01/18 03:35:36;;;;;;;27.00;7.93;;;4.20;99.90;;;;;;3962139;29;20239;-94
2021/01/18 03:41:13;;;;;;;28.90;8.30;;;4.00;99.90;;;;;;3903806;30;20230;-94
2021/01/18 03:43:45;;;;;;;22.27;7.67;;;4.00;99.90;;;;;;3922958;30;20217;-94
2021/01/18 03:46:27;;;;;;;;;;;;;;;;;;;;;
2021/01/18 03:49:05;;;;;;;29.20;7.67;;;3.90;99.90;;;;;;3961255;29;20242;-94
2021/01/18 03:51:37;;;;;;;27.73;7.47;;;3.90;99.90;;;;;;3949484;30;20202;-94
2021/01/18 03:54:14;;;;;;;38.10;9.10;;;4.00;99.90;;;;;;3949476;30;20574;-94
2021/01/18 03:56:58;;;;;;;27.10;7.97;;;4.00;99.90;;;;;;3941600;30;20202;-95
2021/01/18 03:59:48;;;;;;;33.70;8.33;;;4.00;99.90;;;;;;3947491;30;20283;-94
2021/01/18 04:02:21;;;;;;;32.23;8.93;;;3.90;99.90;;;;;;3933462;30;20714;-95
2021/01/18 04:04:49;;;;;;;29.60;9.33;;;3.80;99.90;;;;;;3932534;30;20210;-94
2021/01/18 04:07:27;;;;;;;28.13;9.13;;;3.80;99.90;;;;;;3946116;29;20181;-94
2021/01/18 04:10:18;;;;;;;;;;;;;;;;;;;;;
2021/01/18 04:12:56;;;;;;;26.87;9.43;;;3.70;99.90;;;;;;3947698;30;20197;-93
2021/01/18 04:15:18;;;;;;;21.70;9.20;;;3.50;99.90;;;;;;3947467;30;20246;-94
2021/01/18 04:20:21;;;;;;;27.60;10.27;;;3.40;99.90;;;;;;3943259;30;20197;-94
2021/01/18 04:26:38;;;;;;;31.50;9.93;;;3.40;99.90;;;;;;3896928;30;20661;-94
2021/01/18 04:37:24;;;;;;;30.03;10.00;;;3.50;99.90;;;;;;3978442;24;20252;-93
2021/01/18 04:42:17;;;;;;;34.83;9.97;;;3.40;99.90;;;;;;4220955;24;20251;-96
2021/01/18 04:44:55;;;;;;;29.10;10.43;;;3.40;99.90;;;;;;3922962;30;20591;-93
2021/01/18 04:47:30;;;;;;;26.57;10.87;;;3.40;99.90;;;;;;3932004;30;20201;-95
2021/01/18 04:50:30;;;;;;;29.93;10.83;;;3.20;99.90;;;;;;3936226;30;20196;-94
2021/01/18 04:56:18;;;;;;;28.33;11.67;;;3.00;99.90;;;;;;3903107;30;20192;-96
2021/01/18 04:58:55;;;;;;;32.57;13.43;;;3.10;99.90;;;;;;3903287;30;20545;-95
2021/01/18 05:06:31;;;;;;;36.00;14.77;;;3.40;99.90;;;;;;3947378;30;20233;-94
2021/01/18 05:09:13;;;;;;;30.70;13.43;;;3.20;99.90;;;;;;3888264;30;20342;-94
2021/01/18 05:11:23;;;;;;;37.17;12.57;;;3.30;99.90;;;;;;3947130;30;20193;-94
2021/01/18 05:14:04;;;;;;;37.57;12.77;;;3.10;99.90;;;;;;3918609;30;20171;-93
2021/01/18 05:16:40;;;;;;;34.23;12.47;;;3.10;99.90;;;;;;3932258;30;20193;-93
2021/01/18 05:21:19;;;;;;;31.77;11.83;;;2.80;99.90;;;;;;3950303;30;20208;-96
2021/01/18 05:25:50;;;;;;;33.47;11.17;;;2.80;99.90;;;;;;4193445;24;20303;-95
2021/01/18 05:31:05;;;;;;;34.90;11.10;;;2.70;99.90;;;;;;3971066;29;20199;-95
2021/01/18 05:36:38;;;;;;;30.80;11.27;;;2.70;99.90;;;;;;4160198;24;20247;-96
2021/01/18 05:42:36;;;;;;;28.23;10.60;;;3.00;99.90;;;;;;3907228;30;20238;-95
2021/01/18 05:45:10;;;;;;;35.87;10.23;;;3.10;99.90;;;;;;3920697;30;20780;-94
2021/01/18 05:47:52;;;;;;;37.30;9.70;;;3.30;99.90;;;;;;3919292;30;20203;-94
2021/01/18 05:51:29;;;;;;;29.17;9.80;;;3.30;99.90;;;;;;3937551;30;20239;-93
2021/01/18 05:57:33;;;;;;;30.40;9.17;;;3.20;99.90;;;;;;4032083;24;21041;-93
2021/01/18 06:00:48;;;;;;;;;;;;;;;;;;;;;
2021/01/18 06:07:36;;;;;;;;;;;;;;;;;;;;;
2021/01/18 06:10:57;;;;;;;36.10;9.40;;;3.40;99.90;;;;;;3935995;30;20201;-93
2021/01/18 06:16:05;;;;;;;27.27;9.13;;;3.50;99.90;;;;;;3960496;24;20290;-94
2021/01/18 06:28:23;;;;;;;24.67;8.10;;;3.50;99.90;;;;;;3905007;30;20194;-94
2021/01/18 06:39:02;;;;;;;25.43;7.60;;;3.30;99.90;;;;;;4132581;24;20241;-94
2021/01/18 06:44:37;;;;;;;25.00;7.37;;;2.70;99.90;;;;;;3950567;30;20300;-96
2021/01/18 06:47:47;;;;;;;26.33;7.17;;;2.60;99.90;;;;;;3920751;30;20206;-94
2021/01/18 06:50:26;;;;;;;24.63;8.10;;;2.60;99.90;;;;;;3920117;30;20515;-94
2021/01/18 06:53:19;;;;;;;23.57;7.50;;;2.70;99.90;;;;;;3919042;30;20328;-94
2021/01/18 06:58:36;;;;;;;;;;;;;;;;;;;;;
2021/01/18 07:07:26;;;;;;;37.93;9.67;;;3.00;99.90;;;;;;4609286;24;20304;-94
2021/01/18 07:12:28;;;;;;;17.60;7.77;;;3.00;99.90;;;;;;3929765;30;20218;-95
2021/01/18 07:15:12;;;;;;;21.97;8.27;;;2.80;99.90;;;;;;3965682;29;20207;-94
2021/01/18 07:23:18;;;;;;;26.03;8.57;;;2.80;99.90;;;;;;4178448;24;20725;-96
2021/01/18 07:28:36;;;;;;;34.40;7.77;;;2.90;99.90;;;;;;4000781;24;20187;-93
2021/01/18 07:30:45;;;;;;;28.07;8.93;;;2.80;99.90;;;;;;3932484;30;20209;-94
2021/01/18 07:32:48;;;;;;;19.53;6.60;;;2.80;99.90;;;;;;3931507;30;20190;-94
2021/01/18 07:35:22;;;;;;;23.97;8.63;;;2.70;99.90;;;;;;3948715;30;20263;-93
2021/01/18 07:37:48;;;;;;;28.23;8.60;;;2.70;99.90;;;;;;3933259;30;20231;-94
2021/01/18 07:40:07;;;;;;;17.03;6.43;;;2.70;99.90;;;;;;3919362;30;20167;-93
2021/01/18 07:42:45;;;;;;;27.13;9.37;;;2.80;99.90;;;;;;3918923;30;20222;-93
2021/01/18 07:45:20;;;;;;;31.40;9.40;;;2.90;99.90;;;;;;3919238;30;20260;-94
2021/01/18 07:47:50;;;;;;;28.27;9.80;;;2.90;99.90;;;;;;3919240;30;20186;-94
2021/01/18 07:50:07;;;;;;;34.90;9.73;;;2.80;99.90;;;;;;3933510;30;20210;-96
2021/01/18 07:52:57;;;;;;;18.13;7.00;;;2.90;99.90;;;;;;3934368;30;20191;-94
2021/01/18 07:55:31;;;;;;;30.20;8.60;;;2.90;99.90;;;;;;3931553;30;20276;-94
2021/01/18 07:58:11;;;;;;;22.43;7.90;;;3.10;99.90;;;;;;3933118;30;20194;-94
2021/01/18 08:00:29;;;;;;;22.73;8.23;;;3.00;99.90;;;;;;3919386;30;20652;-94
2021/01/18 08:02:40;;;;;;;25.03;7.53;;;2.80;99.90;;;;;;3933167;30;20224;-93
2021/01/18 08:05:17;;;;;;;29.80;9.60;;;3.00;99.90;;;;;;3919615;30;20605;-94
2021/01/18 08:07:29;;;;;;;26.97;7.93;;;3.10;99.90;;;;;;3918573;30;20187;-93
2021/01/18 08:09:37;;;;;;;24.27;7.07;;;3.30;99.90;;;;;;3933019;30;20200;-95
2021/01/18 08:12:37;;;;;;;30.17;9.03;;;3.10;99.90;;;;;;3933624;30;20676;-94
2021/01/18 08:15:16;;;;;;;29.53;8.23;;;3.10;99.90;;;;;;3933425;30;20217;-94
2021/01/18 08:17:44;;;;;;;29.17;8.77;;;3.20;99.90;;;;;;3933010;30;20270;-94
2021/01/18 08:20:23;;;;;;;30.27;8.30;;;3.30;99.90;;;;;;3933590;30;20175;-95
2021/01/18 08:22:53;;;;;;;24.10;8.47;;;3.30;99.90;;;;;;3932634;30;20280;-94
2021/01/18 08:25:49;;;;;;;;;;;;;;;;;;;;;
2021/01/18 08:28:53;;;;;;;24.30;8.10;;;3.20;99.90;;;;;;3933942;30;20195;-95
2021/01/18 08:31:33;;;;;;;21.73;7.90;;;3.40;99.90;;;;;;3933313;30;20901;-93
2021/01/18 08:34:53;;;;;;;20.03;7.13;;;3.40;99.90;;;;;;3932991;30;20743;-93
2021/01/18 08:37:23;;;;;;;16.80;6.27;;;3.30;99.90;;;;;;3932904;30;20284;-92
2021/01/18 08:40:41;;;;;;;17.67;7.53;;;3.10;99.90;;;;;;3938851;30;20187;-94
2021/01/18 08:43:01;;;;;;;22.27;7.70;;;3.30;99.90;;;;;;3888848;30;20220;-95
2021/01/18 08:45:37;;;;;;;23.67;7.50;;;3.50;99.90;;;;;;3933418;30;20296;-94
2021/01/18 08:48:01;;;;;;;20.03;7.47;;;3.60;99.90;;;;;;3929457;30;20190;-94
2021/01/18 08:54:07;;;;;;;26.57;7.93;;;3.60;99.90;;;;;;3936532;30;20186;-94
2021/01/18 08:57:23;;;;;;;;;;;;;;;;;;;;;
2021/01/18 09:03:30;;;;;;;18.27;7.30;;;3.80;99.90;;;;;;3936589;30;20231;-94
2021/01/18 09:11:42;;;;;;;20.87;7.43;;;4.10;99.90;;;;;;3945102;30;20190;-93
2021/01/18 09:14:42;;;;;;;24.73;6.97;;;4.20;99.90;;;;;;3948976;30;20201;-95
2021/01/18 09:17:37;;;;;;;23.17;7.07;;;4.50;99.90;;;;;;3924232;30;20225;-94
2021/01/18 09:20:33;;;;;;;15.00;6.40;;;4.60;99.90;;;;;;3940409;30;20203;-93
2021/01/18 09:23:08;;;;;;;26.63;7.00;;;4.40;99.90;;;;;;3921064;30;20261;-94
2021/01/18 09:25:19;;;;;;;22.67;8.03;;;4.70;99.90;;;;;;3935162;30;20220;-94
2021/01/18 09:27:43;;;;;;;17.43;6.57;;;4.70;99.90;;;;;;3949063;30;20191;-95
2021/01/18 09:30:11;;;;;;;20.37;6.23;;;4.60;99.90;;;;;;3935260;30;20222;-94
2021/01/18 09:32:54;;;;;;;20.67;5.57;;;4.70;99.90;;;;;;3935340;30;20186;-95
2021/01/18 09:35:34;;;;;;;24.57;6.53;;;4.70;99.90;;;;;;3921776;30;20213;-94
2021/01/18 09:38:04;;;;;;;23.27;6.07;;;4.70;99.90;;;;;;3919743;30;20290;-93
2021/01/18 09:40:29;;;;;;;14.07;5.30;;;4.60;99.90;;;;;;3920681;30;20645;-94
2021/01/18 09:43:00;;;;;;;20.93;6.30;;;4.60;99.90;;;;;;3920751;30;20206;-95
2021/01/18 09:45:45;;;;;;;18.60;5.27;;;4.60;99.90;;;;;;3920603;30;20579;-94
2021/01/18 09:48:26;;;;;;;21.83;5.80;;;4.80;99.90;;;;;;3894238;30;20700;-94
2021/01/18 09:50:57;;;;;;;;;;;;;;;;;;;;;
2021/01/18 09:53:40;;;;;;;18.77;5.63;;;4.90;99.90;;;;;;3926198;30;20202;-94
2021/01/18 09:56:42;;;;;;;22.07;5.70;;;4.70;99.90;;;;;;3921102;30;20219;-94
2021/01/18 09:59:21;;;;;;;23.97;6.03;;;4.80;99.90;;;;;;3934790;30;20198;-94
2021/01/18 10:01:51;;;;;;;23.43;5.77;;;4.60;99.90;;;;;;3922268;30;20226;-95
2021/01/18 10:04:26;;;;;;;;;;;;;;;;;;;;;
2021/01/18 10:06:43;;;;;;;16.03;5.33;;;4.80;99.90;;;;;;3934873;30;20186;-95
2021/01/18 10:09:23;;;;;;;20.27;5.90;;;4.70;99.90;;;;;;3934680;30;20344;-94
2021/01/18 10:12:51;;;;;;;22.27;5.90;;;4.80;99.90;;;;;;3921838;30;20225;-95
2021/01/18 10:16:15;;;;;;;;;;;;;;;;;;;;;
2021/01/18 10:18:54;;;;;;;;;;;;;;;;;;;;;
2021/01/18 10:21:26;;;;;;;17.50;5.77;;;4.90;99.90;;;;;;3935787;30;20655;-94
2021/01/18 10:23:38;;;;;;;24.10;6.30;;;5.00;99.90;;;;;;3920511;30;20230;-94
2021/01/18 10:29:27;;;;;;;20.57;5.80;;;5.30;99.90;;;;;;3935141;30;20265;-92
2021/01/18 10:31:56;;;;;;;23.00;6.80;;;5.00;99.90;;;;;;3934523;30;20188;-94
2021/01/18 10:34:36;;;;;;;20.67;6.97;;;4.90;99.90;;;;;;3919685;30;20195;-93
2021/01/18 10:37:15;;;;;;;24.43;6.93;;;5.00;99.90;;;;;;3934289;30;20273;-94
2021/01/18 10:39:27;;;;;;;20.77;6.30;;;5.10;99.90;;;;;;3935483;30;20198;-94
2021/01/18 10:42:11;;;;;;;17.07;5.40;;;5.10;99.90;;;;;;3949152;30;20194;-92
2021/01/18 10:44:30;;;;;;;25.57;6.93;;;5.10;99.90;;;;;;3934409;30;20209;-93
2021/01/18 10:47:06;;;;;;;24.00;6.70;;;5.10;99.90;;;;;;3919537;30;20624;-94
2021/01/18 10:50:28;;;;;;;23.97;6.87;;;5.30;99.90;;;;;;3935050;30;20185;-94
2021/01/18 10:52:55;;;;;;;;;;;;;;;;;;;;;
2021/01/18 10:55:31;;;;;;;26.07;8.17;;;5.30;99.90;;;;;;3933804;30;20284;-93
2021/01/18 10:57:48;;;;;;;28.60;6.83;;;5.30;99.90;;;;;;3932941;30;20194;-95
2021/01/18 11:00:52;;;;;;;25.80;6.47;;;5.30;99.90;;;;;;3928521;30;20194;-95
2021/01/18 11:03:26;;;;;;;20.93;5.60;;;5.30;99.90;;;;;;3919984;30;20227;-94
2021/01/18 11:06:05;;;;;;;30.20;8.20;;;5.40;99.90;;;;;;3948432;30;20194;-94
2021/01/18 11:08:46;;;;;;;24.60;6.50;;;5.60;99.90;;;;;;3919996;30;20191;-94
2021/01/18 11:11:36;;;;;;;24.63;6.43;;;5.80;99.90;;;;;;3934608;30;20197;-94
2021/01/18 11:14:29;;;;;;;;;;;;;;;;;;;;;
2021/01/18 11:17:40;;;;;;;25.37;6.37;;;6.00;99.90;;;;;;3933559;30;20190;-94
2021/01/18 11:20:06;;;;;;;;;;;;;;;;;;;;;
2021/01/18 11:25:29;;;;;;;20.87;6.50;;;5.90;99.90;;;;;;3933713;30;20206;-95
2021/01/18 11:27:36;;;;;;;26.07;6.43;;;5.90;99.90;;;;;;3919693;30;20190;-93
2021/01/18 11:30:04;;;;;;;12.50;5.07;;;6.00;99.90;;;;;;3933562;30;20235;-94
2021/01/18 11:32:11;;;;;;;23.90;6.30;;;6.00;99.90;;;;;;3919225;30;20545;-93
2021/01/18 11:34:29;;;;;;;20.70;5.80;;;5.90;99.90;;;;;;3948308;30;20615;-93
2021/01/18 11:36:54;;;;;;;22.50;6.40;;;5.90;99.90;;;;;;3933981;30;20178;-92
2021/01/18 11:42:15;;;;;;;21.97;6.30;;;6.10;99.90;;;;;;3934539;30;20675;-94
2021/01/18 11:47:50;;;;;;;18.23;5.63;;;6.10;99.90;;;;;;3934814;30;20251;-93
2021/01/18 12:04:46;;;;;;;15.97;5.50;;;6.50;99.90;;;;;;3961388;30;20259;-94
2021/01/18 12:06:47;;;;;;;19.83;5.57;;;6.70;99.90;;;;;;3933688;30;20659;-94
2021/01/18 12:08:55;;;;;;;20.50;6.00;;;6.90;99.90;;;;;;3948876;30;20519;-93
2021/01/18 12:10:56;;;;;;;20.47;5.97;;;7.00;99.90;;;;;;3934358;30;20185;-94
2021/01/18 12:12:56;;;;;;;16.53;5.00;;;6.90;99.90;;;;;;3933911;30;20199;-94
2021/01/18 12:14:57;;;;;;;22.50;6.03;;;6.80;99.90;;;;;;3932805;30;20275;-95
2021/01/18 12:17:04;;;;;;;15.67;4.77;;;6.70;99.90;;;;;;3948259;30;20273;-93
2021/01/18 12:19:05;;;;;;;18.33;6.50;;;6.70;99.90;;;;;;3933828;30;20196;-94
2021/01/18 12:21:06;;;;;;;21.43;6.60;;;6.60;99.90;;;;;;3948701;30;20217;-94
2021/01/18 12:23:08;;;;;;;19.93;6.13;;;6.70;99.90;;;;;;3948195;30;20220;-95
2021/01/18 12:25:09;;;;;;;21.73;6.13;;;6.70;99.90;;;;;;3932954;30;20289;-94
2021/01/18 12:27:13;;;;;;;21.30;5.63;;;6.60;99.90;;;;;;3932464;30;20189;-96
2021/01/18 12:29:14;;;;;;;19.50;5.57;;;6.70;99.90;;;;;;3932797;30;20608;-95
2021/01/18 12:31:16;;;;;;;18.40;5.50;;;6.80;99.90;;;;;;3933323;30;20252;-93
2021/01/18 12:33:17;;;;;;;23.53;6.17;;;6.80;99.90;;;;;;3932794;30;20190;-93
2021/01/18 12:35:19;;;;;;;23.97;7.10;;;6.70;99.90;;;;;;3948421;30;20197;-93
2021/01/18 12:37:19;;;;;;;18.40;5.70;;;7.00;99.90;;;;;;3932693;30;20643;-94
2021/01/18 12:39:20;;;;;;;13.47;5.30;;;7.10;99.90;;;;;;3948053;30;20241;-94
2021/01/18 12:41:24;;;;;;;18.20;6.63;;;7.00;99.90;;;;;;3932731;30;20178;-94
2021/01/18 12:43:27;;;;;;;21.27;6.17;;;7.10;99.90;;;;;;3934844;30;20224;-93
2021/01/18 12:45:29;;;;;;;26.63;5.50;;;7.10;99.90;;;;;;3933133;30;20572;-95
2021/01/18 12:47:30;;;;;;;18.90;5.27;;;6.80;99.90;;;;;;3933432;30;20619;-94
2021/01/18 12:49:31;;;;;;;14.90;5.10;;;6.70;99.90;;;;;;3947874;30;20228;-93
2021/01/18 12:51:32;;;;;;;16.90;5.27;;;6.50;99.90;;;;;;3932623;30;20183;-94
2021/01/18 12:53:42;;;;;;;21.00;6.23;;;6.60;99.90;;;;;;3947424;30;20624;-93
2021/01/18 12:55:43;;;;;;;22.40;6.37;;;6.60;99.90;;;;;;3932982;30;20193;-95
2021/01/18 12:57:44;;;;;;;27.63;6.20;;;6.70;99.90;;;;;;3932898;30;20182;-93
2021/01/18 12:59:44;;;;;;;18.70;6.30;;;6.70;99.90;;;;;;3933155;30;20623;-94
2021/01/18 13:01:47;;;;;;;21.67;5.93;;;6.90;99.90;;;;;;3932808;30;20178;-96
2021/01/18 13:03:48;;;;;;;23.00;6.27;;;7.00;99.90;;;;;;3932642;30;20246;-93
2021/01/18 13:05:51;;;;;;;20.40;6.30;;;7.10;99.90;;;;;;3932694;30;20219;-94
2021/01/18 13:07:53;;;;;;;8.40;2.93;;;7.30;99.90;;;;;;3933044;30;20182;-94
2021/01/18 13:09:58;;;;;;;12.27;5.17;;;6.90;99.90;;;;;;3933114;30;20182;-93
2021/01/18 13:11:59;;;;;;;19.10;6.30;;;6.80;99.90;;;;;;3932677;30;20274;-93
2021/01/18 13:14:00;;;;;;;20.13;5.93;;;6.70;99.90;;;;;;3947334;30;20643;-94
2021/01/18 13:16:01;;;;;;;19.23;6.83;;;6.80;99.90;;;;;;3932824;30;20212;-93
2021/01/18 13:18:02;;;;;;;24.27;6.67;;;6.80;99.90;;;;;;3932499;30;20190;-94
2021/01/18 13:20:05;;;;;;;21.07;6.40;;;6.60;99.90;;;;;;3932777;30;20185;-94
2021/01/18 13:22:06;;;;;;;23.63;6.90;;;6.70;99.90;;;;;;3933108;30;20217;-93
2021/01/18 13:24:08;;;;;;;20.77;6.17;;;6.80;99.90;;;;;;3933477;30;20660;-94
2021/01/18 13:26:09;;;;;;;22.70;7.33;;;6.70;99.90;;;;;;3932453;30;20251;-94
2021/01/18 13:28:09;;;;;;;24.63;7.33;;;6.80;99.90;;;;;;3932227;30;20638;-94
2021/01/18 13:30:11;;;;;;;28.07;6.60;;;7.20;99.90;;;;;;3932529;30;20202;-93
2021/01/18 13:32:12;;;;;;;20.37;7.20;;;7.20;99.90;;;;;;3932571;30;20244;-93
2021/01/18 13:34:13;;;;;;;20.33;6.87;;;7.30;99.90;;;;;;3947719;30;20209;-93
2021/01/18 13:36:21;;;;;;;25.00;7.50;;;7.30;99.90;;;;;;3932292;30;20228;-95
2021/01/18 13:38:28;;;;;;;21.20;6.63;;;7.20;99.90;;;;;;3933664;30;20186;-95
2021/01/18 13:40:29;;;;;;;18.90;7.23;;;7.10;99.90;;;;;;3935564;30;20210;-92
2021/01/18 13:42:29;;;;;;;25.67;7.87;;;7.00;99.90;;;;;;3949741;30;20266;-93
2021/01/18 13:44:30;;;;;;;24.17;7.83;;;7.10;99.90;;;;;;3935725;30;20270;-95
2021/01/18 13:46:31;;;;;;;20.23;7.90;;;7.20;99.90;;;;;;3935898;30;20291;-94
2021/01/18 13:48:31;;;;;;;29.87;7.40;;;7.20;99.90;;;;;;3936948;30;20179;-95
2021/01/18 13:50:32;;;;;;;23.43;7.63;;;7.10;99.90;;;;;;3937176;30;20174;-95
2021/01/18 13:52:38;;;;;;;23.83;7.07;;;7.00;99.90;;;;;;3934959;30;20273;-94
2021/01/18 13:54:39;;;;;;;22.80;7.47;;;6.90;99.90;;;;;;3935300;30;20214;-94
2021/01/18 13:56:40;;;;;;;20.63;8.00;;;6.70;99.90;;;;;;3934277;30;20202;-96
2021/01/18 13:58:40;;;;;;;21.90;8.13;;;6.60;99.90;;;;;;3935115;30;20251;-95
2021/01/18 14:00:43;;;;;;;20.77;8.27;;;6.60;99.90;;;;;;3935758;30;20182;-93
2021/01/18 14:02:44;;;;;;;26.13;8.90;;;6.60;99.90;;;;;;3934839;30;20246;-93
2021/01/18 14:04:44;;;;;;;27.30;8.40;;;6.70;99.90;;;;;;3935150;30;20218;-92
2021/01/18 14:06:46;;;;;;;20.90;7.77;;;6.80;99.90;;;;;;3949675;30;20162;-95
2021/01/18 14:08:47;;;;;;;24.90;8.63;;;6.90;99.90;;;;;;3935340;30;20183;-93
2021/01/18 14:10:52;;;;;;;20.17;8.07;;;7.00;99.90;;;;;;3936064;30;20178;-96
2021/01/18 14:12:55;;;;;;;18.47;7.37;;;6.80;99.90;;;;;;3935505;30;20194;-94
2021/01/18 14:14:56;;;;;;;21.07;9.17;;;6.80;99.90;;;;;;3934323;30;20308;-95
2021/01/18 14:16:56;;;;;;;23.47;8.77;;;6.90;99.90;;;;;;3935192;30;20193;-94
2021/01/18 14:18:57;;;;;;;23.07;10.10;;;6.80;99.90;;;;;;3934842;30;20281;-93
2021/01/18 14:20:58;;;;;;;18.70;8.93;;;6.70;99.90;;;;;;3950299;30;20186;-94
2021/01/18 14:22:59;;;;;;;20.40;8.07;;;6.80;99.90;;;;;;3920108;30;20581;-95
2021/01/18 14:25:00;;;;;;;21.07;9.53;;;6.60;99.90;;;;;;3934349;30;20646;-93
2021/01/18 14:27:00;;;;;;;28.00;10.50;;;6.50;99.90;;;;;;3934518;30;20186;-93
2021/01/18 14:29:01;;;;;;;24.20;9.63;;;6.50;99.90;;;;;;3934446;30;20266;-94
2021/01/18 14:31:03;;;;;;;18.07;8.13;;;6.60;99.90;;;;;;3949004;30;20193;-92
2021/01/18 14:33:03;;;;;;;23.73;9.57;;;6.50;99.90;;;;;;3934501;30;20379;-93
2021/01/18 14:35:05;;;;;;;24.50;10.20;;;6.60;99.90;;;;;;3935360;30;20210;-94
2021/01/18 14:37:07;;;;;;;20.97;10.50;;;6.60;99.90;;;;;;3935011;30;20181;-94
2021/01/18 14:39:09;;;;;;;21.07;10.07;;;6.70;99.90;;;;;;3934781;30;20662;-95
2021/01/18 14:41:19;;;;;;;21.93;9.97;;;6.60;99.90;;;;;;3934462;30;20213;-93
2021/01/18 14:43:20;;;;;;;25.40;9.47;;;6.60;99.90;;;;;;3949177;30;20225;-94
2021/01/18 14:45:20;;;;;;;24.40;9.83;;;6.60;99.90;;;;;;3934799;30;20214;-93
2021/01/18 14:47:22;;;;;;;23.63;9.83;;;6.40;99.90;;;;;;3934197;30;20186;-93
2021/01/18 14:49:23;;;;;;;27.70;10.33;;;6.40;99.90;;;;;;3933684;30;20216;-95
2021/01/18 14:51:29;;;;;;;21.23;9.53;;;6.40;99.90;;;;;;3948836;30;20185;-93
2021/01/18 14:53:29;;;;;;;27.73;10.97;;;6.30;99.90;;;;;;3934102;30;20274;-94
2021/01/18 14:55:32;;;;;;;24.60;9.70;;;6.30;99.90;;;;;;3948845;30;20659;-93
2021/01/18 14:57:35;;;;;;;23.10;8.43;;;6.30;99.90;;;;;;3934544;30;20655;-93
2021/01/18 14:59:36;;;;;;;27.07;10.50;;;6.10;99.90;;;;;;3933965;30;20186;-92
2021/01/18 15:01:39;;;;;;;22.53;10.10;;;6.10;99.90;;;;;;3934007;30;20182;-93
2021/01/18 15:03:40;;;;;;;25.47;10.20;;;6.30;99.90;;;;;;3933097;30;20649;-94
2021/01/18 15:05:45;;;;;;;19.40;9.43;;;6.30;99.90;;;;;;3933950;30;20193;-93
2021/01/18 15:07:46;;;;;;;27.70;9.33;;;6.40;99.90;;;;;;3933905;30;20636;-94
2021/01/18 15:09:47;;;;;;;27.50;9.80;;;6.40;99.90;;;;;;3935022;30;20182;-94
2021/01/18 15:11:48;;;;;;;23.07;10.30;;;6.30;99.90;;;;;;3934019;30;20276;-93
2021/01/18 15:13:50;;;;;;;21.93;10.33;;;6.40;99.90;;;;;;3948509;30;20297;-94
2021/01/18 15:15:50;;;;;;;22.73;9.33;;;6.20;99.90;;;;;;3934068;30;20239;-93
2021/01/18 15:17:52;;;;;;;25.47;9.90;;;6.40;99.90;;;;;;3948877;30;20627;-93
2021/01/18 15:19:54;;;;;;;26.20;9.57;;;6.30;99.90;;;;;;3934529;30;20183;-94
2021/01/18 15:21:56;;;;;;;24.83;9.70;;;6.20;99.90;;;;;;3948540;30;20276;-96
2021/01/18 15:24:01;;;;;;;19.83;10.37;;;6.30;99.90;;;;;;3920027;30;20235;-93
2021/01/18 15:26:02;;;;;;;26.50;11.07;;;6.40;99.90;;;;;;3935290;30;20174;-94
2021/01/18 15:28:03;;;;;;;22.90;11.33;;;6.30;99.90;;;;;;3934227;30;20597;-93
2021/01/18 15:30:08;;;;;;;20.73;9.80;;;6.40;99.90;;;;;;3935103;30;20170;-95
2021/01/18 15:32:12;;;;;;;24.37;10.73;;;6.50;99.90;;;;;;3935921;30;20189;-93
2021/01/18 15:34:13;;;;;;;23.77;11.70;;;6.30;99.90;;;;;;3935900;30;20594;-94
2021/01/18 15:36:16;;;;;;;21.87;11.40;;;6.30;99.90;;;;;;3934488;30;20186;-93
2021/01/18 15:38:23;;;;;;;17.90;8.97;;;6.40;99.90;;;;;;3934517;30;20186;-94
2021/01/18 15:40:24;;;;;;;25.77;10.87;;;6.20;99.90;;;;;;3934765;30;20257;-94
2021/01/18 15:42:25;;;;;;;22.87;10.80;;;6.20;99.90;;;;;;3933620;30;20288;-94
2021/01/18 15:44:25;;;;;;;21.40;10.10;;;6.20;99.90;;;;;;3934214;30;20214;-94
2021/01/18 15:46:26;;;;;;;24.60;10.73;;;6.10;99.90;;;;;;3934418;30;20599;-93
2021/01/18 15:48:29;;;;;;;22.40;10.53;;;6.30;99.90;;;;;;3933666;30;20242;-93
2021/01/18 15:50:30;;;;;;;23.47;10.23;;;6.40;99.90;;;;;;3935470;30;20179;-93
2021/01/18 15:52:31;;;;;;;21.30;9.00;;;6.40;99.90;;;;;;3949582;30;20276;-94
2021/01/18 15:54:32;;;;;;;25.67;10.00;;;6.30;99.90;;;;;;3934090;30;20214;-92
2021/01/18 15:56:35;;;;;;;22.37;11.07;;;6.30;99.90;;;;;;3933090;30;20184;-94
2021/01/18 15:58:36;;;;;;;22.17;10.37;;;6.30;99.90;;;;;;3934137;30;20183;-93
2021/01/18 16:00:36;;;;;;;25.97;10.80;;;6.30;99.90;;;;;;3933433;30;20194;-94
2021/01/18 16:02:39;;;;;;;26.70;10.97;;;6.20;99.90;;;;;;3949228;29;20218;-93
2021/01/18 16:04:40;;;;;;;20.73;10.40;;;6.20;99.90;;;;;;3933017;30;20759;-95
2021/01/18 16:06:47;;;;;;;25.10;10.07;;;6.20;99.90;;;;;;3950037;30;20178;-96
2021/01/18 16:08:49;;;;;;;22.67;10.43;;;6.20;99.90;;;;;;3934998;30;20213;-93
2021/01/18 16:10:50;;;;;;;24.33;10.10;;;6.20;99.90;;;;;;3933645;30;20688;-93
2021/01/18 16:12:50;;;;;;;25.67;9.97;;;6.10;99.90;;;;;;3948401;30;20258;-94
2021/01/18 16:14:51;;;;;;;20.03;10.60;;;6.10;99.90;;;;;;3933119;30;20257;-94
2021/01/18 16:16:53;;;;;;;22.57;10.30;;;6.20;99.90;;;;;;3934505;30;20171;-94
2021/01/18 16:18:53;;;;;;;20.83;10.10;;;6.40;99.90;;;;;;3934184;30;20228;-95
2021/01/18 16:20:54;;;;;;;32.83;11.77;;;6.40;99.90;;;;;;3935358;30;20202;-95